Bloomington, IL (61701)

1:23 PM CDT on August 28, 2015 (GMT -0500)
Across from IWU | | Change Station
CLOSE
Current Station
Personal Weather Station
Location: Bloomington, IL
Elevation: 810 ft
Nearby Weather Stations

Elev 810 ft 40.49 °N, 88.99 °W | Updated 47 seconds ago

Partly Cloudy
Partly Cloudy
77.8 °F
Feels Like 79 °F
N
6.0
Wind Variable Wind from SSE
Gusts 13.0 mph

Today
High -- | Low -- °F
--% Chance of Precip.
Yesterday
High -- | Low -- °F
Precip. -- in
6:19 AM 7:34 PM
Waxing Gibbous, 98% visible
Pressure 30.11 in
Visibility 10.0 miles
Clouds Few 3500 ft
Heat Index 79 °F
Dew Point 62 °F
Humidity 59%
Rainfall 0.00 in
Snow Depth Not available.
UV 9 out of 12
Pollen 10.50 out of 12
Air Quality Not available.
Flu Activity Not available.
METAR KBMI 281756Z 19008KT 10SM FEW035 25/17 A3013 RMK AO2 58012 T02500166 10255 20155 SLP194
Pressure 30.11 in
Visibility 10.0 miles
Clouds Few 3500 ft
Heat Index 79 °F
Dew Point 62 °F
Humidity 59%
Rainfall 0.00 in
Snow Depth Not available.
UV 9 out of 12
Pollen 10.50 out of 12
Air Quality Not available.
Flu Activity Not available.
METAR KBMI 281756Z 19008KT 10SM FEW035 25/17 A3013 RMK AO2 58012 T02500166 10255 20155 SLP194

10-Day Weather Forecast

×

Almanac

Astronomy

Aug. 28, 2015 Rise Set
Actual Time
Civil Twilight
Nautical Twilight
Astronomical Twilight
Moon
Length of Visible Light
Length of Day
Tomorrow will be .
, % of the Moon is Illuminated

Today's Extremes

State Highs State Lows

Community

WunderPhotos

Upload Photos

1,850,453 photos uploaded!

WunderBlogs® & News

Nearby

Air Quality

  Air Quality AQ Index Pollutant
Not available.

Snow Depth

Station Depth Elevation

Earthquake Activity

City Distance Mag. Time & Date
Minimum magnitude displayed is 2.5.

Coastal Water Temperatures

Place Temperature

Stations

Nearby Weather Stations

Station Location Temp. Windchill Dew Point Humidity Wind Precip. Elev Updated Type